HKMO/MBA METAR and TAF weather

Enter ICAO airport designator
Station Type Date Time Source
HKMO METAR 2022/01/26 19:00 UTC NOAA

HKMO 261900Z 06010KT 9999 FEW024 26/22 Q1011 NOSIG


Station Type Date Time Source
HKMO Decoded METAR 2022/01/26 19:00 UTC NOAA

Mombasa, Kenya (HKMO) 04-02S 039-37E 55M
Jan 26, 2022 - 02:00 PM EST / 2022.01.26 1900 UTC
Wind: from the ENE (060 degrees) at 12 MPH (10 KT):0
Visibility: greater than 7 mile(s):0
Sky conditions: mostly clear
Temperature: 78 F (26 C)
Dew Point: 71 F (22 C)
Relative Humidity: 78%
Pressure (altimeter): 29.85 in. Hg (1011 hPa)
ob: HKMO 261900Z 06010KT 9999 FEW024 26/22 Q1011 NOSIG
cycle: 19

Station Type Date Time Source
HKMO TAF 2022/01/26 18:27 UTC NOAA

TAF TAF HKMO 261700Z 2618/2724 06010KT 9999 FEW022
BECMG 2700/2703 35005KT
BECMG 2709/2712 08010KT SCT026
BECMG 2721/2724 01005K FEW022

Example: see airport list